Huvudsida
METAR-TAF:

METAR-TAF

Flygplatser :

Vasa flygplats

Vasa, Finland

latitud: 63-03N, longitud: 021-46E, höjd: 4 m

Aktuellt väderrapport

Denna rapport gjordes för 20 minuter sedan, klockan 09:50 UTC
Vind 7 kt från syd
Temperatur -3°C
Fuktighet 93%
Tryck 1035 hPa
Sikt 10 km eller mer
lätt snö

METAR: EFVA 150950Z AUTO 18007KT 9999 -SN FEW013/// OVC017/// M03/M04 Q1035

Tid: 12:10 (10:10 UTC)

Väderprognos

Denna rapport gjordes för 1 timme och 38 minuter sedan, klockan 08:32 UTC
Prognos gäller från 15 kl. 09 UTC till 16 kl. 09 UTC
Vind 8 kt från syd
Sikt 10 km eller mer
Mulet på en höjd av 2000 ft
Temporärt
från 15 kl. 09 UTC till 15 kl. 19 UTC
Mulet på en höjd av 1200 ft

TAF: EFVA 150832Z 1509/1609 18008KT 9999 OVC020 TEMPO 1509/1519 OVC012

Aktuella väderrapporter och prognoser från 4000 flygplatser (METAR- och TAF-rapporter).

De tillgängliga stationerna syns som gula och röda prickar på kartan.

För musen över prickarna för att se namnen på stationerna.

Klicka sedan för att få väderrapporter och prognoser.

För att ändra kartan: Klicka på de gröna knapparna med ett svart kors på för att zooma in; den gröna knappen med ett streck på för att zooma ut; eller på de gröna pilarna för angränsande kartor.


METAR-TAF: